sensor_id;sensor_type;location;lat;lon;timestamp;P1;durP1;ratioP1;P2;durP2;ratioP2
46653;SDS011;38960;51.074;17.004;2023-01-05T00:01:27;1.50;;;0.93;;
46653;SDS011;38960;51.074;17.004;2023-01-05T00:03:52;1.65;;;1.08;;
46653;SDS011;38960;51.074;17.004;2023-01-05T00:06:19;3.35;;;1.30;;
46653;SDS011;38960;51.074;17.004;2023-01-05T00:08:45;1.15;;;0.80;;
46653;SDS011;38960;51.074;17.004;2023-01-05T00:11:13;1.38;;;1.13;;
46653;SDS011;38960;51.074;17.004;2023-01-05T00:14:00;1.92;;;1.33;;
46653;SDS011;38960;51.074;17.004;2023-01-05T00:16:45;2.63;;;1.73;;
46653;SDS011;38960;51.074;17.004;2023-01-05T00:19:29;2.17;;;1.08;;
46653;SDS011;38960;51.074;17.004;2023-01-05T00:24:55;3.30;;;0.93;;
46653;SDS011;38960;51.074;17.004;2023-01-05T00:27:38;1.83;;;1.10;;
46653;SDS011;38960;51.074;17.004;2023-01-05T00:30:05;1.30;;;0.80;;
46653;SDS011;38960;51.074;17.004;2023-01-05T00:32:31;1.77;;;0.60;;
46653;SDS011;38960;51.074;17.004;2023-01-05T00:34:57;1.63;;;0.70;;
46653;SDS011;38960;51.074;17.004;2023-01-05T00:37:24;1.42;;;0.80;;
46653;SDS011;38960;51.074;17.004;2023-01-05T00:39:51;0.70;;;0.60;;
46653;SDS011;38960;51.074;17.004;2023-01-05T00:42:19;1.40;;;0.77;;
46653;SDS011;38960;51.074;17.004;2023-01-05T00:44:44;1.02;;;0.63;;
46653;SDS011;38960;51.074;17.004;2023-01-05T00:47:10;2.10;;;1.00;;
46653;SDS011;38960;51.074;17.004;2023-01-05T00:49:36;1.00;;;0.70;;
46653;SDS011;38960;51.074;17.004;2023-01-05T00:52:01;1.98;;;0.80;;
46653;SDS011;38960;51.074;17.004;2023-01-05T00:54:27;1.50;;;0.80;;
46653;SDS011;38960;51.074;17.004;2023-01-05T00:56:53;0.82;;;0.50;;
46653;SDS011;38960;51.074;17.004;2023-01-05T00:59:18;0.82;;;0.60;;
46653;SDS011;38960;51.074;17.004;2023-01-05T01:01:45;0.75;;;0.57;;
46653;SDS011;38960;51.074;17.004;2023-01-05T01:04:11;0.82;;;0.55;;
46653;SDS011;38960;51.074;17.004;2023-01-05T01:06:37;0.60;;;0.60;;
46653;SDS011;38960;51.074;17.004;2023-01-05T01:09:03;1.85;;;0.95;;
46653;SDS011;38960;51.074;17.004;2023-01-05T01:11:29;1.58;;;0.80;;
46653;SDS011;38960;51.074;17.004;2023-01-05T01:13:55;1.50;;;0.57;;
46653;SDS011;38960;51.074;17.004;2023-01-05T01:16:20;1.85;;;0.80;;
46653;SDS011;38960;51.074;17.004;2023-01-05T01:18:46;2.22;;;0.70;;
46653;SDS011;38960;51.074;17.004;2023-01-05T01:21:13;1.38;;;0.65;;
46653;SDS011;38960;51.074;17.004;2023-01-05T01:23:39;1.00;;;0.63;;
46653;SDS011;38960;51.074;17.004;2023-01-05T01:26:05;1.42;;;0.50;;
46653;SDS011;38960;51.074;17.004;2023-01-05T01:28:32;2.13;;;0.57;;
46653;SDS011;38960;51.074;17.004;2023-01-05T01:30:58;1.55;;;0.90;;
46653;SDS011;38960;51.074;17.004;2023-01-05T01:33:23;2.83;;;0.90;;
46653;SDS011;38960;51.074;17.004;2023-01-05T01:35:49;1.95;;;0.77;;
46653;SDS011;38960;51.074;17.004;2023-01-05T01:38:14;3.20;;;0.70;;
46653;SDS011;38960;51.074;17.004;2023-01-05T01:40:41;1.75;;;0.80;;
46653;SDS011;38960;51.074;17.004;2023-01-05T01:43:14;1.98;;;0.93;;
46653;SDS011;38960;51.074;17.004;2023-01-05T01:45:42;1.77;;;0.88;;
46653;SDS011;38960;51.074;17.004;2023-01-05T01:48:08;2.65;;;0.80;;
46653;SDS011;38960;51.074;17.004;2023-01-05T01:50:36;2.70;;;1.00;;
46653;SDS011;38960;51.074;17.004;2023-01-05T01:53:16;3.88;;;1.08;;
46653;SDS011;38960;51.074;17.004;2023-01-05T01:55:45;3.05;;;1.23;;
46653;SDS011;38960;51.074;17.004;2023-01-05T01:58:12;4.18;;;1.77;;
46653;SDS011;38960;51.074;17.004;2023-01-05T02:00:40;3.50;;;0.98;;
46653;SDS011;38960;51.074;17.004;2023-01-05T02:03:06;3.83;;;1.15;;
46653;SDS011;38960;51.074;17.004;2023-01-05T02:05:32;3.63;;;1.50;;
46653;SDS011;38960;51.074;17.004;2023-01-05T02:07:58;3.15;;;1.00;;
46653;SDS011;38960;51.074;17.004;2023-01-05T02:21:24;5.05;;;1.30;;
46653;SDS011;38960;51.074;17.004;2023-01-05T02:32:41;4.05;;;1.10;;
46653;SDS011;38960;51.074;17.004;2023-01-05T02:38:00;3.55;;;1.38;;
46653;SDS011;38960;51.074;17.004;2023-01-05T02:40:33;5.30;;;1.25;;
46653;SDS011;38960;51.074;17.004;2023-01-05T02:45:29;2.20;;;0.98;;
46653;SDS011;38960;51.074;17.004;2023-01-05T02:47:58;4.38;;;1.15;;
46653;SDS011;38960;51.074;17.004;2023-01-05T02:50:43;3.15;;;0.98;;
46653;SDS011;38960;51.074;17.004;2023-01-05T02:58:42;4.88;;;1.10;;
46653;SDS011;38960;51.074;17.004;2023-01-05T03:01:13;7.47;;;1.30;;
46653;SDS011;38960;51.074;17.004;2023-01-05T03:04:08;4.90;;;1.15;;
46653;SDS011;38960;51.074;17.004;2023-01-05T03:09:23;5.25;;;1.50;;
46653;SDS011;38960;51.074;17.004;2023-01-05T03:11:58;4.97;;;1.55;;
46653;SDS011;38960;51.074;17.004;2023-01-05T03:14:49;2.88;;;1.00;;
46653;SDS011;38960;51.074;17.004;2023-01-05T03:17:23;2.63;;;1.05;;
46653;SDS011;38960;51.074;17.004;2023-01-05T03:19:53;2.33;;;1.23;;
46653;SDS011;38960;51.074;17.004;2023-01-05T03:22:28;4.00;;;1.70;;
46653;SDS011;38960;51.074;17.004;2023-01-05T03:25:15;4.47;;;1.25;;
46653;SDS011;38960;51.074;17.004;2023-01-05T03:28:02;4.68;;;0.82;;
46653;SDS011;38960;51.074;17.004;2023-01-05T03:30:53;3.85;;;1.15;;
46653;SDS011;38960;51.074;17.004;2023-01-05T03:36:40;4.85;;;1.15;;
46653;SDS011;38960;51.074;17.004;2023-01-05T03:39:10;3.58;;;1.05;;
46653;SDS011;38960;51.074;17.004;2023-01-05T03:41:37;2.83;;;1.02;;
46653;SDS011;38960;51.074;17.004;2023-01-05T03:44:03;3.28;;;1.20;;
46653;SDS011;38960;51.074;17.004;2023-01-05T03:46:34;3.90;;;2.50;;
46653;SDS011;38960;51.074;17.004;2023-01-05T03:48:59;4.32;;;1.35;;
46653;SDS011;38960;51.074;17.004;2023-01-05T03:51:26;5.60;;;2.50;;
46653;SDS011;38960;51.074;17.004;2023-01-05T03:53:51;6.63;;;1.52;;
46653;SDS011;38960;51.074;17.004;2023-01-05T03:56:17;41.88;;;3.67;;
46653;SDS011;38960;51.074;17.004;2023-01-05T03:58:43;4.32;;;1.35;;
46653;SDS011;38960;51.074;17.004;2023-01-05T04:01:08;4.55;;;1.40;;
46653;SDS011;38960;51.074;17.004;2023-01-05T04:03:36;2.70;;;1.40;;
46653;SDS011;38960;51.074;17.004;2023-01-05T04:06:05;7.18;;;1.10;;
46653;SDS011;38960;51.074;17.004;2023-01-05T04:08:32;4.82;;;1.40;;
46653;SDS011;38960;51.074;17.004;2023-01-05T04:11:12;2.25;;;1.00;;
46653;SDS011;38960;51.074;17.004;2023-01-05T04:13:46;3.58;;;0.80;;
46653;SDS011;38960;51.074;17.004;2023-01-05T04:16:14;7.43;;;1.50;;
46653;SDS011;38960;51.074;17.004;2023-01-05T04:18:40;3.80;;;1.40;;
46653;SDS011;38960;51.074;17.004;2023-01-05T04:21:07;4.18;;;1.23;;
46653;SDS011;38960;51.074;17.004;2023-01-05T04:23:34;8.30;;;1.58;;
46653;SDS011;38960;51.074;17.004;2023-01-05T04:26:02;4.30;;;1.38;;
46653;SDS011;38960;51.074;17.004;2023-01-05T04:28:28;4.68;;;1.25;;
46653;SDS011;38960;51.074;17.004;2023-01-05T04:30:56;4.72;;;1.42;;
46653;SDS011;38960;51.074;17.004;2023-01-05T04:33:23;5.88;;;1.20;;
46653;SDS011;38960;51.074;17.004;2023-01-05T04:35:50;5.97;;;1.40;;
46653;SDS011;38960;51.074;17.004;2023-01-05T04:38:17;5.53;;;1.50;;
46653;SDS011;38960;51.074;17.004;2023-01-05T04:40:49;8.05;;;1.40;;
46653;SDS011;38960;51.074;17.004;2023-01-05T04:43:17;6.15;;;1.45;;
46653;SDS011;38960;51.074;17.004;2023-01-05T04:45:47;2.83;;;1.23;;
46653;SDS011;38960;51.074;17.004;2023-01-05T04:48:14;3.53;;;0.90;;
46653;SDS011;38960;51.074;17.004;2023-01-05T04:50:41;3.33;;;1.02;;
46653;SDS011;38960;51.074;17.004;2023-01-05T04:53:07;3.42;;;0.80;;
46653;SDS011;38960;51.074;17.004;2023-01-05T04:55:36;4.15;;;1.30;;
46653;SDS011;38960;51.074;17.004;2023-01-05T04:58:02;2.58;;;0.90;;
46653;SDS011;38960;51.074;17.004;2023-01-05T05:00:28;3.33;;;1.10;;
46653;SDS011;38960;51.074;17.004;2023-01-05T05:02:58;7.32;;;1.10;;
46653;SDS011;38960;51.074;17.004;2023-01-05T05:05:25;4.72;;;1.63;;
46653;SDS011;38960;51.074;17.004;2023-01-05T05:07:52;2.60;;;1.00;;
46653;SDS011;38960;51.074;17.004;2023-01-05T05:10:22;1.75;;;0.80;;
46653;SDS011;38960;51.074;17.004;2023-01-05T05:12:47;3.83;;;1.33;;
46653;SDS011;38960;51.074;17.004;2023-01-05T05:15:13;3.42;;;1.08;;
46653;SDS011;38960;51.074;17.004;2023-01-05T05:17:44;2.08;;;1.02;;
46653;SDS011;38960;51.074;17.004;2023-01-05T05:20:11;2.45;;;1.15;;
46653;SDS011;38960;51.074;17.004;2023-01-05T05:22:37;3.85;;;0.90;;
46653;SDS011;38960;51.074;17.004;2023-01-05T05:25:04;3.30;;;1.02;;
46653;SDS011;38960;51.074;17.004;2023-01-05T05:27:30;3.15;;;0.88;;
46653;SDS011;38960;51.074;17.004;2023-01-05T05:29:55;3.72;;;1.40;;
46653;SDS011;38960;51.074;17.004;2023-01-05T05:32:21;2.83;;;0.73;;
46653;SDS011;38960;51.074;17.004;2023-01-05T05:34:47;3.75;;;0.88;;
46653;SDS011;38960;51.074;17.004;2023-01-05T05:37:12;3.50;;;1.13;;
46653;SDS011;38960;51.074;17.004;2023-01-05T05:39:38;2.63;;;0.82;;
46653;SDS011;38960;51.074;17.004;2023-01-05T05:42:03;2.90;;;1.00;;
46653;SDS011;38960;51.074;17.004;2023-01-05T05:44:29;6.45;;;0.93;;
46653;SDS011;38960;51.074;17.004;2023-01-05T05:46:54;2.95;;;0.90;;
46653;SDS011;38960;51.074;17.004;2023-01-05T05:49:20;4.15;;;1.10;;
46653;SDS011;38960;51.074;17.004;2023-01-05T05:51:46;5.25;;;1.08;;
46653;SDS011;38960;51.074;17.004;2023-01-05T05:54:11;3.13;;;0.80;;
46653;SDS011;38960;51.074;17.004;2023-01-05T05:56:37;2.53;;;0.85;;
46653;SDS011;38960;51.074;17.004;2023-01-05T05:59:02;2.72;;;0.90;;
46653;SDS011;38960;51.074;17.004;2023-01-05T06:01:28;2.22;;;0.80;;
46653;SDS011;38960;51.074;17.004;2023-01-05T06:03:54;3.47;;;1.10;;
46653;SDS011;38960;51.074;17.004;2023-01-05T06:06:19;1.67;;;0.65;;
46653;SDS011;38960;51.074;17.004;2023-01-05T06:08:45;3.45;;;0.90;;
46653;SDS011;38960;51.074;17.004;2023-01-05T06:11:10;3.13;;;1.08;;
46653;SDS011;38960;51.074;17.004;2023-01-05T06:13:36;4.40;;;1.25;;
46653;SDS011;38960;51.074;17.004;2023-01-05T06:16:01;1.48;;;0.65;;
46653;SDS011;38960;51.074;17.004;2023-01-05T06:18:27;2.92;;;0.88;;
46653;SDS011;38960;51.074;17.004;2023-01-05T06:20:53;3.08;;;1.30;;
46653;SDS011;38960;51.074;17.004;2023-01-05T06:23:18;2.85;;;1.00;;
46653;SDS011;38960;51.074;17.004;2023-01-05T06:25:44;5.50;;;1.17;;
46653;SDS011;38960;51.074;17.004;2023-01-05T06:28:10;2.17;;;1.23;;
46653;SDS011;38960;51.074;17.004;2023-01-05T06:30:36;2.88;;;1.00;;
46653;SDS011;38960;51.074;17.004;2023-01-05T06:33:01;2.47;;;1.15;;
46653;SDS011;38960;51.074;17.004;2023-01-05T06:35:27;2.72;;;0.90;;
46653;SDS011;38960;51.074;17.004;2023-01-05T06:37:52;2.95;;;1.17;;
46653;SDS011;38960;51.074;17.004;2023-01-05T06:40:18;3.28;;;1.23;;
46653;SDS011;38960;51.074;17.004;2023-01-05T06:42:43;2.35;;;1.00;;
46653;SDS011;38960;51.074;17.004;2023-01-05T06:45:11;6.93;;;1.00;;
46653;SDS011;38960;51.074;17.004;2023-01-05T06:47:38;3.38;;;1.10;;
46653;SDS011;38960;51.074;17.004;2023-01-05T06:50:04;5.00;;;1.60;;
46653;SDS011;38960;51.074;17.004;2023-01-05T06:52:30;4.38;;;1.30;;
46653;SDS011;38960;51.074;17.004;2023-01-05T06:55:01;1.70;;;0.73;;
46653;SDS011;38960;51.074;17.004;2023-01-05T06:57:27;3.13;;;1.15;;
46653;SDS011;38960;51.074;17.004;2023-01-05T06:59:53;3.03;;;1.45;;
46653;SDS011;38960;51.074;17.004;2023-01-05T07:02:19;4.68;;;1.40;;
46653;SDS011;38960;51.074;17.004;2023-01-05T07:04:44;3.65;;;1.05;;
46653;SDS011;38960;51.074;17.004;2023-01-05T07:07:10;8.73;;;1.40;;
46653;SDS011;38960;51.074;17.004;2023-01-05T07:09:37;4.40;;;1.27;;
46653;SDS011;38960;51.074;17.004;2023-01-05T07:12:03;2.72;;;1.00;;
46653;SDS011;38960;51.074;17.004;2023-01-05T07:14:29;3.28;;;1.02;;
46653;SDS011;38960;51.074;17.004;2023-01-05T07:16:54;3.28;;;1.08;;
46653;SDS011;38960;51.074;17.004;2023-01-05T07:19:20;3.08;;;1.23;;
46653;SDS011;38960;51.074;17.004;2023-01-05T07:21:45;3.55;;;1.45;;
46653;SDS011;38960;51.074;17.004;2023-01-05T07:24:11;4.78;;;1.20;;
46653;SDS011;38960;51.074;17.004;2023-01-05T07:26:37;10.05;;;1.65;;
46653;SDS011;38960;51.074;17.004;2023-01-05T07:29:02;17.27;;;2.38;;
46653;SDS011;38960;51.074;17.004;2023-01-05T07:31:28;10.77;;;3.03;;
46653;SDS011;38960;51.074;17.004;2023-01-05T07:33:54;5.82;;;1.50;;
46653;SDS011;38960;51.074;17.004;2023-01-05T07:36:19;3.85;;;1.30;;
46653;SDS011;38960;51.074;17.004;2023-01-05T07:38:45;5.93;;;1.65;;
46653;SDS011;38960;51.074;17.004;2023-01-05T07:41:10;5.22;;;2.10;;
46653;SDS011;38960;51.074;17.004;2023-01-05T07:43:36;5.10;;;1.35;;
46653;SDS011;38960;51.074;17.004;2023-01-05T07:46:03;4.03;;;1.23;;
46653;SDS011;38960;51.074;17.004;2023-01-05T07:48:29;5.40;;;1.45;;
46653;SDS011;38960;51.074;17.004;2023-01-05T07:50:58;4.40;;;1.52;;
46653;SDS011;38960;51.074;17.004;2023-01-05T07:53:31;5.97;;;1.85;;
46653;SDS011;38960;51.074;17.004;2023-01-05T07:55:59;4.43;;;1.50;;
46653;SDS011;38960;51.074;17.004;2023-01-05T07:58:26;8.13;;;1.50;;
46653;SDS011;38960;51.074;17.004;2023-01-05T08:00:52;4.30;;;2.00;;
46653;SDS011;38960;51.074;17.004;2023-01-05T08:03:18;6.32;;;1.92;;
46653;SDS011;38960;51.074;17.004;2023-01-05T08:05:44;5.63;;;1.88;;
46653;SDS011;38960;51.074;17.004;2023-01-05T08:08:10;9.07;;;3.10;;
46653;SDS011;38960;51.074;17.004;2023-01-05T08:10:37;8.25;;;2.63;;
46653;SDS011;38960;51.074;17.004;2023-01-05T08:13:04;5.82;;;2.00;;
46653;SDS011;38960;51.074;17.004;2023-01-05T08:15:56;9.23;;;2.00;;
46653;SDS011;38960;51.074;17.004;2023-01-05T08:18:24;7.43;;;2.05;;
46653;SDS011;38960;51.074;17.004;2023-01-05T08:20:57;8.07;;;2.33;;
46653;SDS011;38960;51.074;17.004;2023-01-05T08:23:25;6.00;;;1.48;;
46653;SDS011;38960;51.074;17.004;2023-01-05T08:25:51;6.93;;;1.73;;
46653;SDS011;38960;51.074;17.004;2023-01-05T08:28:20;7.32;;;1.73;;
46653;SDS011;38960;51.074;17.004;2023-01-05T08:30:46;5.57;;;1.73;;
46653;SDS011;38960;51.074;17.004;2023-01-05T08:33:12;5.85;;;1.70;;
46653;SDS011;38960;51.074;17.004;2023-01-05T08:35:41;5.30;;;1.80;;
46653;SDS011;38960;51.074;17.004;2023-01-05T08:38:08;6.13;;;1.88;;
46653;SDS011;38960;51.074;17.004;2023-01-05T08:40:35;5.18;;;1.83;;
46653;SDS011;38960;51.074;17.004;2023-01-05T08:43:02;5.70;;;1.75;;
46653;SDS011;38960;51.074;17.004;2023-01-05T08:45:28;5.75;;;1.50;;
46653;SDS011;38960;51.074;17.004;2023-01-05T08:47:54;6.55;;;1.92;;
46653;SDS011;38960;51.074;17.004;2023-01-05T08:50:19;6.97;;;2.42;;
46653;SDS011;38960;51.074;17.004;2023-01-05T08:52:45;9.68;;;1.83;;
46653;SDS011;38960;51.074;17.004;2023-01-05T08:55:11;4.68;;;1.60;;
46653;SDS011;38960;51.074;17.004;2023-01-05T08:57:36;6.47;;;1.67;;
46653;SDS011;38960;51.074;17.004;2023-01-05T09:00:02;5.40;;;1.83;;
46653;SDS011;38960;51.074;17.004;2023-01-05T09:02:28;4.97;;;1.48;;
46653;SDS011;38960;51.074;17.004;2023-01-05T09:04:54;4.28;;;1.60;;
46653;SDS011;38960;51.074;17.004;2023-01-05T09:07:19;7.45;;;1.95;;
46653;SDS011;38960;51.074;17.004;2023-01-05T09:09:46;4.65;;;1.67;;
46653;SDS011;38960;51.074;17.004;2023-01-05T09:12:12;4.57;;;1.50;;
46653;SDS011;38960;51.074;17.004;2023-01-05T09:14:37;7.40;;;2.05;;
46653;SDS011;38960;51.074;17.004;2023-01-05T09:17:03;6.75;;;2.08;;
46653;SDS011;38960;51.074;17.004;2023-01-05T09:19:28;6.60;;;1.75;;
46653;SDS011;38960;51.074;17.004;2023-01-05T09:21:54;6.88;;;2.30;;
46653;SDS011;38960;51.074;17.004;2023-01-05T09:24:20;7.53;;;1.92;;
46653;SDS011;38960;51.074;17.004;2023-01-05T09:26:46;4.68;;;1.85;;
46653;SDS011;38960;51.074;17.004;2023-01-05T09:29:11;3.80;;;1.45;;
46653;SDS011;38960;51.074;17.004;2023-01-05T09:31:38;7.78;;;2.40;;
46653;SDS011;38960;51.074;17.004;2023-01-05T09:34:05;4.75;;;1.40;;
46653;SDS011;38960;51.074;17.004;2023-01-05T09:36:30;7.55;;;1.77;;
46653;SDS011;38960;51.074;17.004;2023-01-05T09:38:56;4.38;;;1.80;;
46653;SDS011;38960;51.074;17.004;2023-01-05T09:43:59;8.38;;;2.17;;
46653;SDS011;38960;51.074;17.004;2023-01-05T09:46:28;4.65;;;1.52;;
46653;SDS011;38960;51.074;17.004;2023-01-05T09:48:58;5.07;;;1.83;;
46653;SDS011;38960;51.074;17.004;2023-01-05T09:51:26;6.40;;;1.60;;
46653;SDS011;38960;51.074;17.004;2023-01-05T09:53:52;5.78;;;2.17;;
46653;SDS011;38960;51.074;17.004;2023-01-05T09:58:46;5.63;;;2.20;;
46653;SDS011;38960;51.074;17.004;2023-01-05T10:01:14;6.72;;;2.08;;
46653;SDS011;38960;51.074;17.004;2023-01-05T10:06:19;7.80;;;2.00;;
46653;SDS011;38960;51.074;17.004;2023-01-05T10:08:47;3.65;;;1.15;;
46653;SDS011;38960;51.074;17.004;2023-01-05T10:11:17;4.82;;;1.65;;
46653;SDS011;38960;51.074;17.004;2023-01-05T10:14:06;8.18;;;1.90;;
46653;SDS011;38960;51.074;17.004;2023-01-05T10:16:34;7.80;;;1.75;;
46653;SDS011;38960;51.074;17.004;2023-01-05T10:19:00;8.10;;;1.80;;
46653;SDS011;38960;51.074;17.004;2023-01-05T10:24:44;5.90;;;1.75;;
46653;SDS011;38960;51.074;17.004;2023-01-05T10:30:18;7.15;;;1.70;;
46653;SDS011;38960;51.074;17.004;2023-01-05T10:40:25;7.03;;;1.90;;
46653;SDS011;38960;51.074;17.004;2023-01-05T10:45:28;6.78;;;2.30;;
46653;SDS011;38960;51.074;17.004;2023-01-05T10:47:54;4.97;;;1.75;;
46653;SDS011;38960;51.074;17.004;2023-01-05T10:53:06;3.85;;;1.80;;
46653;SDS011;38960;51.074;17.004;2023-01-05T10:55:43;7.75;;;2.05;;
46653;SDS011;38960;51.074;17.004;2023-01-05T10:58:40;7.28;;;2.13;;
46653;SDS011;38960;51.074;17.004;2023-01-05T11:01:13;12.25;;;4.13;;
46653;SDS011;38960;51.074;17.004;2023-01-05T11:03:44;14.68;;;6.28;;
46653;SDS011;38960;51.074;17.004;2023-01-05T11:06:18;11.15;;;4.45;;
46653;SDS011;38960;51.074;17.004;2023-01-05T11:08:46;10.18;;;4.22;;
46653;SDS011;38960;51.074;17.004;2023-01-05T11:11:18;7.60;;;3.78;;
46653;SDS011;38960;51.074;17.004;2023-01-05T11:13:45;5.53;;;2.20;;
46653;SDS011;38960;51.074;17.004;2023-01-05T11:16:13;4.53;;;1.90;;
46653;SDS011;38960;51.074;17.004;2023-01-05T11:21:15;5.40;;;2.13;;
46653;SDS011;38960;51.074;17.004;2023-01-05T11:24:03;4.82;;;1.42;;
46653;SDS011;38960;51.074;17.004;2023-01-05T11:26:30;7.25;;;2.20;;
46653;SDS011;38960;51.074;17.004;2023-01-05T11:34:43;5.95;;;2.58;;
46653;SDS011;38960;51.074;17.004;2023-01-05T11:42:33;6.25;;;1.75;;
46653;SDS011;38960;51.074;17.004;2023-01-05T11:45:15;5.63;;;1.73;;
46653;SDS011;38960;51.074;17.004;2023-01-05T11:47:46;4.63;;;1.77;;
46653;SDS011;38960;51.074;17.004;2023-01-05T11:50:20;3.22;;;1.60;;
46653;SDS011;38960;51.074;17.004;2023-01-05T11:52:52;4.07;;;1.40;;
46653;SDS011;38960;51.074;17.004;2023-01-05T11:57:44;4.47;;;1.05;;
46653;SDS011;38960;51.074;17.004;2023-01-05T12:00:24;3.05;;;1.05;;
46653;SDS011;38960;51.074;17.004;2023-01-05T12:05:48;3.10;;;0.98;;
46653;SDS011;38960;51.074;17.004;2023-01-05T12:08:23;2.03;;;0.90;;
46653;SDS011;38960;51.074;17.004;2023-01-05T12:10:59;2.17;;;0.90;;
46653;SDS011;38960;51.074;17.004;2023-01-05T12:13:48;1.48;;;0.90;;
46653;SDS011;38960;51.074;17.004;2023-01-05T12:16:54;3.33;;;1.20;;
46653;SDS011;38960;51.074;17.004;2023-01-05T12:31:16;3.22;;;1.13;;
46653;SDS011;38960;51.074;17.004;2023-01-05T12:35:56;1.92;;;0.85;;
46653;SDS011;38960;51.074;17.004;2023-01-05T12:41:13;2.20;;;1.10;;
46653;SDS011;38960;51.074;17.004;2023-01-05T12:46:27;2.97;;;1.08;;
46653;SDS011;38960;51.074;17.004;2023-01-05T12:49:10;2.30;;;1.05;;
46653;SDS011;38960;51.074;17.004;2023-01-05T12:51:42;3.22;;;1.27;;
46653;SDS011;38960;51.074;17.004;2023-01-05T12:57:15;4.28;;;1.35;;
46653;SDS011;38960;51.074;17.004;2023-01-05T13:02:27;4.03;;;1.30;;
46653;SDS011;38960;51.074;17.004;2023-01-05T13:10:27;6.85;;;1.52;;
46653;SDS011;38960;51.074;17.004;2023-01-05T13:12:58;4.82;;;1.60;;
46653;SDS011;38960;51.074;17.004;2023-01-05T13:15:51;6.60;;;1.60;;
46653;SDS011;38960;51.074;17.004;2023-01-05T13:18:19;3.58;;;1.30;;
46653;SDS011;38960;51.074;17.004;2023-01-05T13:20:57;2.88;;;1.20;;
46653;SDS011;38960;51.074;17.004;2023-01-05T13:23:43;3.83;;;1.30;;
46653;SDS011;38960;51.074;17.004;2023-01-05T13:26:15;2.25;;;1.30;;
46653;SDS011;38960;51.074;17.004;2023-01-05T13:28:45;2.65;;;1.20;;
46653;SDS011;38960;51.074;17.004;2023-01-05T13:39:59;5.22;;;1.27;;
46653;SDS011;38960;51.074;17.004;2023-01-05T13:50:17;1.63;;;0.93;;
46653;SDS011;38960;51.074;17.004;2023-01-05T13:55:23;4.95;;;1.35;;
46653;SDS011;38960;51.074;17.004;2023-01-05T13:57:49;4.82;;;1.30;;
46653;SDS011;38960;51.074;17.004;2023-01-05T14:02:59;4.47;;;1.40;;
46653;SDS011;38960;51.074;17.004;2023-01-05T14:05:33;2.95;;;1.40;;
46653;SDS011;38960;51.074;17.004;2023-01-05T14:08:01;3.65;;;1.73;;
46653;SDS011;38960;51.074;17.004;2023-01-05T14:10:29;3.33;;;1.67;;
46653;SDS011;38960;51.074;17.004;2023-01-05T14:12:56;7.78;;;4.30;;
46653;SDS011;38960;51.074;17.004;2023-01-05T14:23:02;5.82;;;2.90;;
46653;SDS011;38960;51.074;17.004;2023-01-05T14:25:53;8.65;;;3.03;;
46653;SDS011;38960;51.074;17.004;2023-01-05T14:33:32;6.50;;;2.75;;
46653;SDS011;38960;51.074;17.004;2023-01-05T14:36:01;5.85;;;2.35;;
46653;SDS011;38960;51.074;17.004;2023-01-05T14:38:28;6.30;;;2.20;;
46653;SDS011;38960;51.074;17.004;2023-01-05T14:40:54;6.22;;;3.03;;
46653;SDS011;38960;51.074;17.004;2023-01-05T14:43:21;6.57;;;2.58;;
46653;SDS011;38960;51.074;17.004;2023-01-05T14:45:59;3.55;;;2.10;;
46653;SDS011;38960;51.074;17.004;2023-01-05T14:51:15;4.05;;;1.75;;
46653;SDS011;38960;51.074;17.004;2023-01-05T14:53:44;5.53;;;1.42;;
46653;SDS011;38960;51.074;17.004;2023-01-05T15:03:48;3.92;;;1.88;;
46653;SDS011;38960;51.074;17.004;2023-01-05T15:11:37;6.10;;;0.98;;
46653;SDS011;38960;51.074;17.004;2023-01-05T15:28:45;1.45;;;0.88;;
46653;SDS011;38960;51.074;17.004;2023-01-05T15:36:43;3.03;;;1.10;;
46653;SDS011;38960;51.074;17.004;2023-01-05T15:41:52;2.40;;;1.17;;
46653;SDS011;38960;51.074;17.004;2023-01-05T15:44:20;4.50;;;1.00;;
46653;SDS011;38960;51.074;17.004;2023-01-05T15:46:46;3.30;;;1.30;;
46653;SDS011;38960;51.074;17.004;2023-01-05T15:49:17;7.03;;;1.30;;
46653;SDS011;38960;51.074;17.004;2023-01-05T15:51:48;2.42;;;1.10;;
46653;SDS011;38960;51.074;17.004;2023-01-05T15:54:20;2.95;;;1.13;;
46653;SDS011;38960;51.074;17.004;2023-01-05T15:56:53;5.03;;;1.25;;
46653;SDS011;38960;51.074;17.004;2023-01-05T15:59:21;4.03;;;1.10;;
46653;SDS011;38960;51.074;17.004;2023-01-05T16:01:50;2.97;;;0.80;;
46653;SDS011;38960;51.074;17.004;2023-01-05T16:04:16;3.97;;;1.20;;
46653;SDS011;38960;51.074;17.004;2023-01-05T16:06:45;2.72;;;1.27;;
46653;SDS011;38960;51.074;17.004;2023-01-05T16:09:22;3.17;;;1.10;;
46653;SDS011;38960;51.074;17.004;2023-01-05T16:12:08;3.08;;;1.48;;
46653;SDS011;38960;51.074;17.004;2023-01-05T16:14:59;2.10;;;1.17;;
46653;SDS011;38960;51.074;17.004;2023-01-05T16:17:27;3.83;;;1.50;;
46653;SDS011;38960;51.074;17.004;2023-01-05T16:19:58;7.05;;;2.58;;
46653;SDS011;38960;51.074;17.004;2023-01-05T16:22:38;2.45;;;1.40;;
46653;SDS011;38960;51.074;17.004;2023-01-05T16:25:27;3.63;;;1.15;;
46653;SDS011;38960;51.074;17.004;2023-01-05T16:27:55;6.15;;;1.25;;
46653;SDS011;38960;51.074;17.004;2023-01-05T16:32:55;2.63;;;1.13;;
46653;SDS011;38960;51.074;17.004;2023-01-05T16:43:28;5.70;;;1.70;;
46653;SDS011;38960;51.074;17.004;2023-01-05T16:51:10;3.03;;;1.50;;
46653;SDS011;38960;51.074;17.004;2023-01-05T16:58:56;3.38;;;1.40;;
46653;SDS011;38960;51.074;17.004;2023-01-05T17:01:42;4.30;;;1.10;;
46653;SDS011;38960;51.074;17.004;2023-01-05T17:04:13;2.47;;;1.25;;
46653;SDS011;38960;51.074;17.004;2023-01-05T17:06:40;2.80;;;1.20;;
46653;SDS011;38960;51.074;17.004;2023-01-05T17:09:17;4.47;;;2.05;;
46653;SDS011;38960;51.074;17.004;2023-01-05T17:11:45;4.38;;;1.60;;
46653;SDS011;38960;51.074;17.004;2023-01-05T17:14:11;3.70;;;1.35;;
46653;SDS011;38960;51.074;17.004;2023-01-05T17:16:37;5.68;;;1.98;;
46653;SDS011;38960;51.074;17.004;2023-01-05T17:19:13;4.30;;;1.88;;
46653;SDS011;38960;51.074;17.004;2023-01-05T17:21:53;5.13;;;1.58;;
46653;SDS011;38960;51.074;17.004;2023-01-05T17:24:20;4.82;;;1.77;;
46653;SDS011;38960;51.074;17.004;2023-01-05T17:26:46;3.15;;;1.38;;
46653;SDS011;38960;51.074;17.004;2023-01-05T17:29:22;3.80;;;1.42;;
46653;SDS011;38960;51.074;17.004;2023-01-05T17:31:51;4.28;;;1.55;;
46653;SDS011;38960;51.074;17.004;2023-01-05T17:34:17;4.65;;;1.67;;
46653;SDS011;38960;51.074;17.004;2023-01-05T17:36:44;3.88;;;1.83;;
46653;SDS011;38960;51.074;17.004;2023-01-05T17:39:14;3.17;;;1.42;;
46653;SDS011;38960;51.074;17.004;2023-01-05T17:41:40;3.03;;;1.30;;
46653;SDS011;38960;51.074;17.004;2023-01-05T17:44:06;3.75;;;1.25;;
46653;SDS011;38960;51.074;17.004;2023-01-05T17:46:33;3.58;;;1.50;;
46653;SDS011;38960;51.074;17.004;2023-01-05T17:49:00;4.68;;;1.50;;
46653;SDS011;38960;51.074;17.004;2023-01-05T17:51:27;3.65;;;1.58;;
46653;SDS011;38960;51.074;17.004;2023-01-05T17:53:54;3.95;;;1.75;;
46653;SDS011;38960;51.074;17.004;2023-01-05T17:56:20;4.40;;;1.80;;
46653;SDS011;38960;51.074;17.004;2023-01-05T17:58:45;3.95;;;1.50;;
46653;SDS011;38960;51.074;17.004;2023-01-05T18:01:11;4.63;;;1.42;;
46653;SDS011;38960;51.074;17.004;2023-01-05T18:03:36;4.15;;;1.30;;
46653;SDS011;38960;51.074;17.004;2023-01-05T18:06:02;2.38;;;1.35;;
46653;SDS011;38960;51.074;17.004;2023-01-05T18:08:28;3.95;;;1.30;;
46653;SDS011;38960;51.074;17.004;2023-01-05T18:10:53;3.13;;;1.38;;
46653;SDS011;38960;51.074;17.004;2023-01-05T18:13:19;2.95;;;1.40;;
46653;SDS011;38960;51.074;17.004;2023-01-05T18:15:48;2.75;;;1.42;;